createdAt,value
2022-09-22T00:01:33.505Z,9.93
2022-09-22T00:04:07.273Z,9.07
2022-09-22T00:06:52.147Z,10.13
2022-09-22T00:09:21.556Z,10.25
2022-09-22T00:11:51.932Z,10.55
2022-09-22T00:14:28.213Z,11.40
2022-09-22T00:16:59.243Z,10.38
2022-09-22T00:19:33.157Z,11.38
2022-09-22T00:22:01.213Z,11.73
2022-09-22T00:24:29.300Z,11.43
2022-09-22T00:26:58.623Z,12.07
2022-09-22T00:29:28.264Z,12.63
2022-09-22T00:31:57.304Z,11.35
2022-09-22T00:34:27.326Z,11.57
2022-09-22T00:36:55.083Z,12.10
2022-09-22T00:39:22.726Z,12.48
2022-09-22T00:41:52.291Z,12.20
2022-09-22T00:44:28.798Z,11.75
2022-09-22T00:47:14.721Z,12.55
2022-09-22T00:50:10.294Z,13.68
2022-09-22T00:52:59.815Z,14.50
2022-09-22T00:55:35.063Z,16.60
2022-09-22T00:58:06.371Z,19.08
2022-09-22T01:00:35.330Z,17.00
2022-09-22T01:03:06.875Z,17.40
2022-09-22T01:05:37.059Z,17.27
2022-09-22T01:08:05.139Z,18.23
2022-09-22T01:10:33.166Z,17.52
2022-09-22T01:16:17.189Z,16.33
2022-09-22T01:18:59.486Z,15.50
2022-09-22T01:21:51.815Z,14.55
2022-09-22T01:24:43.603Z,14.20
2022-09-22T01:27:16.991Z,15.90
2022-09-22T01:29:47.218Z,14.68
2022-09-22T01:32:32.281Z,14.75
2022-09-22T01:35:24.588Z,14.60
2022-09-22T01:38:24.909Z,14.63
2022-09-22T01:41:06.759Z,14.68
2022-09-22T01:43:43.159Z,14.95
2022-09-22T01:46:34.968Z,15.05
2022-09-22T01:49:07.803Z,14.88
2022-09-22T01:51:42.829Z,15.15
2022-09-22T01:54:16.928Z,13.80
2022-09-22T01:56:48.748Z,15.60
2022-09-22T01:59:20.546Z,14.10
2022-09-22T02:01:55.190Z,14.88
2022-09-22T02:04:36.007Z,13.65
2022-09-22T02:07:14.409Z,13.45
2022-09-22T02:09:42.763Z,11.88
2022-09-22T02:12:10.279Z,11.02
2022-09-22T02:14:37.908Z,12.15
2022-09-22T02:17:08.862Z,10.60
2022-09-22T02:19:38.221Z,11.45
2022-09-22T02:22:07.235Z,10.82
2022-09-22T02:24:40.622Z,11.50
2022-09-22T02:27:36.722Z,11.77
2022-09-22T02:30:08.389Z,11.43
2022-09-22T02:32:38.537Z,10.80
2022-09-22T02:35:07.792Z,11.00
2022-09-22T02:37:53.056Z,10.52
2022-09-22T02:40:26.800Z,10.68
2022-09-22T02:43:18.938Z,10.50
2022-09-22T02:45:55.599Z,10.10
2022-09-22T02:48:26.580Z,9.70
2022-09-22T02:50:54.652Z,10.30
2022-09-22T02:53:22.178Z,10.32
2022-09-22T02:55:50.104Z,9.93
2022-09-22T02:58:17.868Z,10.88
2022-09-22T03:00:45.653Z,11.88
2022-09-22T03:03:13.512Z,10.25
2022-09-22T03:05:41.346Z,10.57
2022-09-22T03:08:09.408Z,10.60
2022-09-22T03:10:37.033Z,11.07
2022-09-22T03:13:20.740Z,12.07
2022-09-22T03:15:49.853Z,11.10
2022-09-22T03:18:17.527Z,10.85
2022-09-22T03:20:45.898Z,10.40
2022-09-22T03:23:13.522Z,10.73
2022-09-22T03:25:41.284Z,10.93
2022-09-22T03:28:10.545Z,10.27
2022-09-22T03:30:40.493Z,11.20
2022-09-22T03:33:11.954Z,10.73
2022-09-22T03:35:40.284Z,9.85
2022-09-22T03:38:07.768Z,9.75
2022-09-22T03:40:37.085Z,9.70
2022-09-22T03:43:04.703Z,9.95
2022-09-22T03:45:32.714Z,8.48
2022-09-22T03:48:00.536Z,8.77
2022-09-22T03:50:28.499Z,9.00
2022-09-22T03:52:57.912Z,9.35
2022-09-22T03:55:25.689Z,9.40
2022-09-22T03:57:53.207Z,9.23
2022-09-22T04:00:20.831Z,9.82
2022-09-22T04:02:48.374Z,9.30
2022-09-22T04:05:16.354Z,9.75
2022-09-22T04:07:45.494Z,9.30
2022-09-22T04:10:13.937Z,8.43
2022-09-22T04:12:41.423Z,8.98
2022-09-22T04:15:09.781Z,9.55
2022-09-22T04:17:37.457Z,8.65
2022-09-22T04:20:06.522Z,10.02
2022-09-22T04:22:34.714Z,9.82
2022-09-22T04:25:03.050Z,10.53
2022-09-22T04:27:31.111Z,9.93
2022-09-22T04:30:00.862Z,9.95
2022-09-22T04:32:28.467Z,10.02
2022-09-22T04:34:56.010Z,10.45
2022-09-22T04:37:23.535Z,10.20
2022-09-22T04:39:54.108Z,10.35
2022-09-22T04:42:22.231Z,11.52
2022-09-22T04:44:50.064Z,13.80
2022-09-22T04:47:20.659Z,13.57
2022-09-22T04:49:48.238Z,13.43
2022-09-22T04:52:15.895Z,14.98
2022-09-22T04:54:43.445Z,13.30
2022-09-22T04:57:11.319Z,14.05
2022-09-22T04:59:38.892Z,13.63
2022-09-22T05:02:06.799Z,14.02
2022-09-22T05:04:34.413Z,13.63
2022-09-22T05:07:01.920Z,13.98
2022-09-22T05:09:30.070Z,12.90
2022-09-22T05:12:01.341Z,13.35
2022-09-22T05:14:29.748Z,13.05
2022-09-22T05:16:57.441Z,12.27
2022-09-22T05:19:25.170Z,12.18
2022-09-22T05:21:53.205Z,12.77
2022-09-22T05:24:20.896Z,12.90
2022-09-22T05:26:48.592Z,14.13
2022-09-22T05:29:18.366Z,14.82
2022-09-22T05:31:49.212Z,15.30
2022-09-22T05:34:16.899Z,15.60
2022-09-22T05:36:44.731Z,17.00
2022-09-22T05:39:12.314Z,17.80
2022-09-22T05:41:40.038Z,18.13
2022-09-22T05:44:07.742Z,18.27
2022-09-22T05:46:35.367Z,16.38
2022-09-22T05:49:03.092Z,17.05
2022-09-22T05:51:30.954Z,18.83
2022-09-22T05:53:58.450Z,17.98
2022-09-22T05:56:26.067Z,17.70
2022-09-22T05:58:53.595Z,15.73
2022-09-22T06:01:21.217Z,17.23
2022-09-22T06:03:48.742Z,16.75
2022-09-22T06:06:16.299Z,14.20
2022-09-22T06:08:47.905Z,15.85
2022-09-22T06:11:16.788Z,16.90
2022-09-22T06:13:46.181Z,15.32
2022-09-22T06:16:13.756Z,14.63
2022-09-22T06:18:41.275Z,15.52
2022-09-22T06:21:08.820Z,15.32
2022-09-22T06:23:42.033Z,16.42
2022-09-22T06:26:10.902Z,15.18
2022-09-22T06:28:38.426Z,15.75
2022-09-22T06:31:06.966Z,16.05
2022-09-22T06:33:35.651Z,16.27
2022-09-22T06:36:07.215Z,16.73
2022-09-22T06:38:34.963Z,16.50
2022-09-22T06:41:04.329Z,17.27
2022-09-22T06:43:33.055Z,17.83
2022-09-22T06:48:32.081Z,17.52
2022-09-22T06:50:59.802Z,18.50
2022-09-22T06:53:27.770Z,17.75
2022-09-22T06:55:55.626Z,16.23
2022-09-22T06:58:23.178Z,15.85
2022-09-22T07:00:51.418Z,13.77
2022-09-22T07:03:22.080Z,14.25
2022-09-22T07:05:54.183Z,14.77
2022-09-22T07:08:24.049Z,15.63
2022-09-22T07:11:03.871Z,17.38
2022-09-22T07:13:32.914Z,16.05
2022-09-22T07:16:03.298Z,15.73
2022-09-22T07:18:31.341Z,15.95
2022-09-22T07:21:07.094Z,16.63
2022-09-22T07:24:10.435Z,15.43
2022-09-22T07:26:39.477Z,16.63
2022-09-22T07:29:11.813Z,17.67
2022-09-22T07:31:41.571Z,16.48
2022-09-22T07:34:11.469Z,14.45
2022-09-22T07:36:40.094Z,13.77
2022-09-22T07:39:11.126Z,15.25
2022-09-22T07:41:43.752Z,16.17
2022-09-22T07:44:32.666Z,18.20
2022-09-22T07:47:01.290Z,18.50
2022-09-22T07:49:29.510Z,17.73
2022-09-22T07:51:57.810Z,18.63
2022-09-22T07:54:27.249Z,38.20
2022-09-22T07:57:06.771Z,18.52
2022-09-22T07:59:36.278Z,16.45
2022-09-22T08:02:03.913Z,17.55
2022-09-22T08:04:33.647Z,17.25
2022-09-22T08:07:01.506Z,17.60
2022-09-22T08:09:31.798Z,17.35
2022-09-22T08:12:00.570Z,17.98
2022-09-22T08:14:29.902Z,18.55
2022-09-22T08:19:25.549Z,18.38
2022-09-22T08:21:56.463Z,18.27
2022-09-22T08:24:24.260Z,17.67
2022-09-22T08:26:54.273Z,16.52
2022-09-22T08:29:22.953Z,17.75
2022-09-22T08:31:51.429Z,16.40
2022-09-22T08:34:20.313Z,15.85
2022-09-22T08:36:48.529Z,16.00
2022-09-22T08:39:18.063Z,17.52
2022-09-22T08:41:48.798Z,18.33
2022-09-22T08:44:42.826Z,19.50
2022-09-22T08:47:37.947Z,22.88
2022-09-22T08:50:37.388Z,21.70
2022-09-22T08:53:10.107Z,26.00
2022-09-22T08:55:43.266Z,21.23
2022-09-22T08:58:32.277Z,19.23
2022-09-22T09:01:21.445Z,17.65
2022-09-22T09:03:56.190Z,13.00
2022-09-22T09:06:23.734Z,10.35
2022-09-22T09:09:18.988Z,9.18
2022-09-22T09:12:18.904Z,7.55
2022-09-22T09:15:02.765Z,5.95
2022-09-22T09:17:35.785Z,5.28
2022-09-22T09:20:09.017Z,4.82
2022-09-22T09:22:44.983Z,8.85
2022-09-22T09:25:37.414Z,5.40
2022-09-22T09:28:10.131Z,5.20
2022-09-22T09:30:51.961Z,5.10
2022-09-22T09:33:41.911Z,5.55
2022-09-22T09:38:49.513Z,4.60
2022-09-22T09:41:23.990Z,4.63
2022-09-22T09:43:54.490Z,4.70
2022-09-22T09:46:27.970Z,4.40
2022-09-22T09:49:10.672Z,4.00
2022-09-22T09:51:42.438Z,37.10
2022-09-22T09:54:17.027Z,11.63
2022-09-22T09:57:27.537Z,4.90
2022-09-22T10:00:33.651Z,4.25
2022-09-22T10:03:05.787Z,4.40
2022-09-22T10:05:37.680Z,4.40
2022-09-22T10:08:21.154Z,4.15
2022-09-22T10:10:58.314Z,5.18
2022-09-22T10:13:34.208Z,4.13
2022-09-22T10:16:20.063Z,3.22
2022-09-22T10:18:49.685Z,3.90
2022-09-22T10:21:24.650Z,4.00
2022-09-22T10:23:54.869Z,3.85
2022-09-22T10:26:29.433Z,3.70
2022-09-22T10:29:18.365Z,3.95
2022-09-22T10:32:05.254Z,4.07
2022-09-22T10:34:42.064Z,4.18
2022-09-22T10:37:12.460Z,4.00
2022-09-22T10:39:54.476Z,4.38
2022-09-22T10:42:44.080Z,4.35
2022-09-22T10:45:18.440Z,4.35
2022-09-22T10:47:59.357Z,3.50
2022-09-22T10:50:31.396Z,3.75
2022-09-22T10:53:27.499Z,3.85
2022-09-22T10:56:16.681Z,3.70
2022-09-22T10:59:06.047Z,3.00
2022-09-22T11:01:39.796Z,6.15
2022-09-22T11:04:23.338Z,4.00
2022-09-22T11:07:33.108Z,3.40
2022-09-22T11:10:33.262Z,3.47
2022-09-22T11:13:11.874Z,3.30
2022-09-22T11:16:05.677Z,2.83
2022-09-22T11:19:02.851Z,2.92
2022-09-22T11:21:50.950Z,2.88
2022-09-22T11:24:45.576Z,2.90
2022-09-22T11:27:29.090Z,2.67
2022-09-22T11:30:11.564Z,2.83
2022-09-22T11:32:45.531Z,2.70
2022-09-22T11:35:35.276Z,2.70
2022-09-22T11:40:44.751Z,2.80
2022-09-22T11:43:48.904Z,2.40
2022-09-22T11:46:16.461Z,2.97
2022-09-22T11:49:20.979Z,2.30
2022-09-22T11:52:07.361Z,2.13
2022-09-22T11:55:00.998Z,4.65
2022-09-22T11:57:34.829Z,2.50
2022-09-22T12:00:13.060Z,6.93
2022-09-22T12:02:48.790Z,2.50
2022-09-22T12:05:30.210Z,2.45
2022-09-22T12:08:01.916Z,2.40
2022-09-22T12:10:40.920Z,2.30
2022-09-22T12:13:20.404Z,2.22
2022-09-22T12:16:13.480Z,2.15
2022-09-22T12:19:07.831Z,2.47
2022-09-22T12:21:42.553Z,2.10
2022-09-22T12:24:12.065Z,2.55
2022-09-22T12:26:43.223Z,2.55
2022-09-22T12:29:13.895Z,2.58
2022-09-22T12:31:44.002Z,2.35
2022-09-22T12:34:20.111Z,2.38
2022-09-22T12:36:51.274Z,1.92
2022-09-22T12:39:22.050Z,2.20
2022-09-22T12:42:04.926Z,2.13
2022-09-22T12:44:45.881Z,2.40
2022-09-22T12:47:42.995Z,2.10
2022-09-22T12:50:13.275Z,2.10
2022-09-22T12:52:40.802Z,2.17
2022-09-22T12:55:29.390Z,2.22
2022-09-22T12:57:59.435Z,2.15
2022-09-22T13:00:41.241Z,2.10
2022-09-22T13:03:38.136Z,3.00
2022-09-22T13:06:22.021Z,2.53
2022-09-22T13:08:55.552Z,2.80
2022-09-22T13:12:01.783Z,2.40
2022-09-22T13:14:57.205Z,2.28
2022-09-22T13:17:36.600Z,2.20
2022-09-22T13:20:20.767Z,2.10
2022-09-22T13:22:48.554Z,2.50
2022-09-22T13:25:22.224Z,2.13
2022-09-22T13:28:09.973Z,4.10
2022-09-22T13:30:39.952Z,2.38
2022-09-22T13:33:22.166Z,2.13
2022-09-22T13:36:03.806Z,2.10
2022-09-22T13:38:45.141Z,2.40
2022-09-22T13:41:19.019Z,2.60
2022-09-22T13:43:55.023Z,2.55
2022-09-22T13:46:39.603Z,3.10
2022-09-22T13:49:12.333Z,3.10
2022-09-22T13:51:40.336Z,2.50
2022-09-22T13:54:18.703Z,2.40
2022-09-22T13:56:47.096Z,2.38
2022-09-22T13:59:17.316Z,2.40
2022-09-22T14:01:52.841Z,14.00
2022-09-22T14:04:26.735Z,17.92
2022-09-22T14:06:59.373Z,4.50
2022-09-22T14:09:27.870Z,2.53
2022-09-22T14:11:58.044Z,3.55
2022-09-22T14:16:58.081Z,2.50
2022-09-22T14:19:44.799Z,2.40
2022-09-22T14:22:32.029Z,2.30
2022-09-22T14:25:03.691Z,2.33
2022-09-22T14:27:38.376Z,2.38
2022-09-22T14:30:06.938Z,2.10
2022-09-22T14:32:39.401Z,2.45
2022-09-22T14:35:20.599Z,5.53
2022-09-22T14:37:51.871Z,4.63
2022-09-22T14:40:23.092Z,2.78
2022-09-22T14:43:21.571Z,3.55
2022-09-22T14:46:07.370Z,2.15
2022-09-22T14:48:36.846Z,2.30
2022-09-22T14:51:15.642Z,5.18
2022-09-22T14:53:48.595Z,2.90
2022-09-22T14:56:29.110Z,2.97
2022-09-22T14:59:37.501Z,2.83
2022-09-22T15:02:32.517Z,3.03
2022-09-22T15:05:03.534Z,4.93
2022-09-22T15:07:36.035Z,2.70
2022-09-22T15:10:08.120Z,2.63
2022-09-22T15:12:47.473Z,2.90
2022-09-22T15:15:17.274Z,2.13
2022-09-22T15:18:09.139Z,2.35
2022-09-22T15:20:50.123Z,2.40
2022-09-22T15:23:26.006Z,3.97
2022-09-22T15:25:55.398Z,3.10
2022-09-22T15:28:25.338Z,4.05
2022-09-22T15:30:53.648Z,14.38
2022-09-22T15:33:21.672Z,4.40
2022-09-22T15:36:02.186Z,3.88
2022-09-22T15:38:32.837Z,4.65
2022-09-22T15:41:00.464Z,4.32
2022-09-22T15:43:31.031Z,5.53
2022-09-22T15:46:03.882Z,4.57
2022-09-22T15:48:37.104Z,4.40
2022-09-22T15:51:15.995Z,4.28
2022-09-22T15:53:43.729Z,5.15
2022-09-22T15:56:15.301Z,4.38
2022-09-22T15:58:44.069Z,4.30
2022-09-22T16:01:11.890Z,5.10
2022-09-22T16:03:41.425Z,4.63
2022-09-22T16:06:16.594Z,4.35
2022-09-22T16:08:55.228Z,4.68
2022-09-22T16:11:29.635Z,6.10
2022-09-22T16:14:01.172Z,4.65
2022-09-22T16:16:31.289Z,5.05
2022-09-22T16:21:35.227Z,5.07
2022-09-22T16:24:09.378Z,5.57
2022-09-22T16:26:40.091Z,5.43
2022-09-22T16:29:08.842Z,6.20
2022-09-22T16:31:37.498Z,5.97
2022-09-22T16:34:06.885Z,5.88
2022-09-22T16:36:36.248Z,6.32
2022-09-22T16:39:05.490Z,5.45
2022-09-22T16:44:02.817Z,5.65
2022-09-22T16:46:31.640Z,5.57
2022-09-22T16:49:05.425Z,5.45
2022-09-22T16:51:36.442Z,5.75
2022-09-22T16:54:06.343Z,5.55
2022-09-22T16:56:36.199Z,5.55
2022-09-22T16:59:04.613Z,5.10
2022-09-22T17:01:38.212Z,5.43
2022-09-22T17:04:07.779Z,5.70
2022-09-22T17:06:37.759Z,6.32
2022-09-22T17:09:07.323Z,5.55
2022-09-22T17:11:40.296Z,6.57
2022-09-22T17:14:12.675Z,7.05
2022-09-22T17:16:45.748Z,7.25
2022-09-22T17:19:18.548Z,6.93
2022-09-22T17:21:48.529Z,6.93
2022-09-22T17:24:16.462Z,7.95
2022-09-22T17:26:47.927Z,6.75
2022-09-22T17:29:18.527Z,7.80
2022-09-22T17:31:49.576Z,7.07
2022-09-22T17:34:17.337Z,39.28
2022-09-22T17:36:45.132Z,33.28
2022-09-22T17:39:12.910Z,28.15
2022-09-22T17:41:47.120Z,6.88
2022-09-22T17:44:21.328Z,6.38
2022-09-22T17:47:09.351Z,7.00
2022-09-22T17:49:58.320Z,7.10
2022-09-22T17:52:32.123Z,7.38
2022-09-22T17:55:08.224Z,6.90
2022-09-22T17:57:38.523Z,6.82
2022-09-22T18:00:11.220Z,6.80
2022-09-22T18:02:39.376Z,6.28
2022-09-22T18:05:10.075Z,6.97
2022-09-22T18:07:40.297Z,6.32
2022-09-22T18:10:14.488Z,6.90
2022-09-22T18:12:42.951Z,7.78
2022-09-22T18:15:13.398Z,15.73
2022-09-22T18:17:42.685Z,7.32
2022-09-22T18:20:18.401Z,7.20
2022-09-22T18:22:48.234Z,7.72
2022-09-22T18:25:19.634Z,9.20
2022-09-22T18:27:50.947Z,9.88
2022-09-22T18:30:19.624Z,11.13
2022-09-22T18:32:48.269Z,10.13
2022-09-22T18:35:16.168Z,9.60
2022-09-22T18:37:43.827Z,9.98
2022-09-22T18:40:12.682Z,9.55
2022-09-22T18:42:41.631Z,9.93
2022-09-22T18:45:11.109Z,9.88
2022-09-22T18:47:41.003Z,10.20
2022-09-22T18:50:09.487Z,9.52
2022-09-22T18:52:42.661Z,8.93
2022-09-22T18:55:12.008Z,8.65
2022-09-22T18:57:40.643Z,8.80
2022-09-22T19:00:09.720Z,8.13
2022-09-22T19:02:37.725Z,7.95
2022-09-22T19:05:05.820Z,7.88
2022-09-22T19:07:43.055Z,7.97
2022-09-22T19:10:15.086Z,8.30
2022-09-22T19:12:42.983Z,7.65
2022-09-22T19:15:13.993Z,8.05
2022-09-22T19:17:46.674Z,7.80
2022-09-22T19:20:23.950Z,11.73
2022-09-22T19:22:52.732Z,8.80
2022-09-22T19:25:22.243Z,7.63
2022-09-22T19:27:52.618Z,7.55
2022-09-22T19:30:24.928Z,8.20
2022-09-22T19:32:55.129Z,7.70
2022-09-22T19:35:23.088Z,8.02
2022-09-22T19:37:52.015Z,8.45
2022-09-22T19:40:20.509Z,7.75
2022-09-22T19:42:49.949Z,8.50
2022-09-22T19:45:19.176Z,7.88
2022-09-22T19:47:47.763Z,8.23
2022-09-22T19:50:15.512Z,8.52
2022-09-22T19:52:43.489Z,7.68
2022-09-22T19:55:11.680Z,7.40
2022-09-22T19:57:41.804Z,7.47
2022-09-22T20:00:17.725Z,7.47
2022-09-22T20:02:45.791Z,7.40
2022-09-22T20:05:22.155Z,7.97
2022-09-22T20:07:50.876Z,7.90
2022-09-22T20:10:22.600Z,7.63
2022-09-22T20:12:53.795Z,7.20
2022-09-22T20:15:21.531Z,7.25
2022-09-22T20:17:49.234Z,6.93
2022-09-22T20:20:22.706Z,7.25
2022-09-22T20:23:00.300Z,7.32
2022-09-22T20:25:33.172Z,6.75
2022-09-22T20:28:01.305Z,7.50
2022-09-22T20:30:28.843Z,6.70
2022-09-22T20:32:56.511Z,7.05
2022-09-22T20:35:24.296Z,7.57
2022-09-22T20:37:59.357Z,7.72
2022-09-22T20:40:27.340Z,7.53
2022-09-22T20:42:54.882Z,7.90
2022-09-22T20:45:25.439Z,7.95
2022-09-22T20:47:53.054Z,7.20
2022-09-22T20:50:21.484Z,7.55
2022-09-22T20:52:49.067Z,8.82
2022-09-22T20:55:17.235Z,7.90
2022-09-22T20:57:44.781Z,7.68
2022-09-22T21:00:15.366Z,8.05
2022-09-22T21:02:43.537Z,8.38
2022-09-22T21:05:11.316Z,7.68
2022-09-22T21:07:39.256Z,8.18
2022-09-22T21:10:28.382Z,7.38
2022-09-22T21:12:56.529Z,7.80
2022-09-22T21:15:24.381Z,7.47
2022-09-22T21:17:52.951Z,8.27
2022-09-22T21:20:20.502Z,8.95
2022-09-22T21:22:48.900Z,12.93
2022-09-22T21:25:16.679Z,13.20
2022-09-22T21:27:45.263Z,10.43
2022-09-22T21:30:13.477Z,10.25
2022-09-22T21:32:41.003Z,11.55
2022-09-22T21:35:09.430Z,11.30
2022-09-22T21:37:37.173Z,10.35
2022-09-22T21:40:05.273Z,10.07
2022-09-22T21:42:33.188Z,9.98
2022-09-22T21:45:01.223Z,9.23
2022-09-22T21:47:28.750Z,9.07
2022-09-22T21:49:56.476Z,7.70
2022-09-22T21:52:24.079Z,7.88
2022-09-22T21:54:51.683Z,7.20
2022-09-22T21:57:19.196Z,7.28
2022-09-22T21:59:47.003Z,6.07
2022-09-22T22:02:14.530Z,5.82
2022-09-22T22:04:42.325Z,5.30
2022-09-22T22:07:11.965Z,4.80
2022-09-22T22:09:39.570Z,5.18
2022-09-22T22:12:07.288Z,5.18
2022-09-22T22:14:35.054Z,4.82
2022-09-22T22:17:02.615Z,4.70
2022-09-22T22:19:30.336Z,4.85
2022-09-22T22:21:57.828Z,5.05
2022-09-22T22:24:31.079Z,4.70
2022-09-22T22:27:01.426Z,4.70
2022-09-22T22:29:34.839Z,4.45
2022-09-22T22:32:05.134Z,4.53
2022-09-22T22:34:33.304Z,4.85
2022-09-22T22:37:01.234Z,6.13
2022-09-22T22:39:29.986Z,7.25
2022-09-22T22:41:57.557Z,8.43
2022-09-22T22:44:25.277Z,7.45
2022-09-22T22:46:53.306Z,6.85
2022-09-22T22:49:20.888Z,6.88
2022-09-22T22:51:49.484Z,7.00
2022-09-22T22:54:17.225Z,6.75
2022-09-22T22:56:48.904Z,6.82
2022-09-22T22:59:18.631Z,6.60
2022-09-22T23:01:46.314Z,7.82
2022-09-22T23:04:16.758Z,7.33
2022-09-22T23:06:49.063Z,6.60
2022-09-22T23:09:17.427Z,7.30
2022-09-22T23:11:46.487Z,7.15
2022-09-22T23:14:16.364Z,7.20
2022-09-22T23:16:46.897Z,7.88
2022-09-22T23:19:18.575Z,7.57
2022-09-22T23:21:46.982Z,7.10
2022-09-22T23:24:16.560Z,6.85
2022-09-22T23:26:45.468Z,6.22
2022-09-22T23:29:13.595Z,6.72
2022-09-22T23:31:41.289Z,7.25
2022-09-22T23:34:09.142Z,6.43
2022-09-22T23:36:37.473Z,6.47
2022-09-22T23:39:05.185Z,6.35
2022-09-22T23:41:34.686Z,7.05
2022-09-22T23:44:03.631Z,6.20
2022-09-22T23:46:32.355Z,6.47
2022-09-22T23:49:00.433Z,6.15
2022-09-22T23:51:30.999Z,5.97
2022-09-22T23:53:58.846Z,5.95
2022-09-22T23:56:26.676Z,6.43
2022-09-22T23:58:54.710Z,6.80
